sensor_id;sensor_type;location;lat;lon;timestamp;P1;durP1;ratioP1;P2;durP2;ratioP2
35743;SDS011;21867;52.012;4.324;2022-12-18T00:00:44;54.73;;;30.50;;
35743;SDS011;21867;52.012;4.324;2022-12-18T00:03:11;37.63;;;22.23;;
35743;SDS011;21867;52.012;4.324;2022-12-18T00:05:45;48.43;;;25.67;;
35743;SDS011;21867;52.012;4.324;2022-12-18T00:08:12;48.70;;;27.57;;
35743;SDS011;21867;52.012;4.324;2022-12-18T00:10:40;44.80;;;24.93;;
35743;SDS011;21867;52.012;4.324;2022-12-18T00:13:07;38.73;;;20.47;;
35743;SDS011;21867;52.012;4.324;2022-12-18T00:15:36;45.73;;;27.27;;
35743;SDS011;21867;52.012;4.324;2022-12-18T00:18:04;41.80;;;24.10;;
35743;SDS011;21867;52.012;4.324;2022-12-18T00:20:35;46.20;;;25.93;;
35743;SDS011;21867;52.012;4.324;2022-12-18T00:23:02;45.37;;;26.33;;
35743;SDS011;21867;52.012;4.324;2022-12-18T00:25:29;53.33;;;26.23;;
35743;SDS011;21867;52.012;4.324;2022-12-18T00:27:59;45.23;;;27.93;;
35743;SDS011;21867;52.012;4.324;2022-12-18T00:30:26;51.67;;;28.90;;
35743;SDS011;21867;52.012;4.324;2022-12-18T00:32:59;43.23;;;26.30;;
35743;SDS011;21867;52.012;4.324;2022-12-18T00:35:28;37.47;;;22.50;;
35743;SDS011;21867;52.012;4.324;2022-12-18T00:37:55;45.63;;;26.43;;
35743;SDS011;21867;52.012;4.324;2022-12-18T00:40:23;45.47;;;25.53;;
35743;SDS011;21867;52.012;4.324;2022-12-18T00:48:42;46.27;;;26.27;;
35743;SDS011;21867;52.012;4.324;2022-12-18T00:51:11;40.03;;;25.63;;
35743;SDS011;21867;52.012;4.324;2022-12-18T00:53:39;41.00;;;24.73;;
35743;SDS011;21867;52.012;4.324;2022-12-18T00:56:06;51.53;;;27.20;;
35743;SDS011;21867;52.012;4.324;2022-12-18T00:58:35;32.63;;;21.17;;
35743;SDS011;21867;52.012;4.324;2022-12-18T01:01:03;41.20;;;23.63;;
35743;SDS011;21867;52.012;4.324;2022-12-18T01:03:33;40.53;;;22.50;;
35743;SDS011;21867;52.012;4.324;2022-12-18T01:06:04;39.67;;;24.07;;
35743;SDS011;21867;52.012;4.324;2022-12-18T01:08:33;42.37;;;23.77;;
35743;SDS011;21867;52.012;4.324;2022-12-18T01:11:00;45.77;;;25.60;;
35743;SDS011;21867;52.012;4.324;2022-12-18T01:13:28;39.77;;;24.33;;
35743;SDS011;21867;52.012;4.324;2022-12-18T01:18:41;45.93;;;25.73;;
35743;SDS011;21867;52.012;4.324;2022-12-18T01:21:09;39.93;;;24.03;;
35743;SDS011;21867;52.012;4.324;2022-12-18T01:23:38;38.53;;;23.93;;
35743;SDS011;21867;52.012;4.324;2022-12-18T01:26:11;39.23;;;23.43;;
35743;SDS011;21867;52.012;4.324;2022-12-18T01:28:51;30.00;;;18.90;;
35743;SDS011;21867;52.012;4.324;2022-12-18T01:31:46;40.73;;;25.10;;
35743;SDS011;21867;52.012;4.324;2022-12-18T01:34:14;34.60;;;21.80;;
35743;SDS011;21867;52.012;4.324;2022-12-18T01:36:41;37.43;;;23.40;;
35743;SDS011;21867;52.012;4.324;2022-12-18T01:39:11;40.90;;;23.67;;
35743;SDS011;21867;52.012;4.324;2022-12-18T01:41:41;38.27;;;23.23;;
35743;SDS011;21867;52.012;4.324;2022-12-18T01:46:58;42.77;;;24.50;;
35743;SDS011;21867;52.012;4.324;2022-12-18T01:49:25;42.00;;;24.30;;
35743;SDS011;21867;52.012;4.324;2022-12-18T01:51:52;31.30;;;19.43;;
35743;SDS011;21867;52.012;4.324;2022-12-18T01:54:21;42.43;;;24.77;;
35743;SDS011;21867;52.012;4.324;2022-12-18T01:59:52;37.90;;;21.30;;
35743;SDS011;21867;52.012;4.324;2022-12-18T02:02:41;38.67;;;24.10;;
35743;SDS011;21867;52.012;4.324;2022-12-18T02:05:11;42.53;;;25.03;;
35743;SDS011;21867;52.012;4.324;2022-12-18T02:07:42;43.60;;;25.43;;
35743;SDS011;21867;52.012;4.324;2022-12-18T02:10:13;43.17;;;25.83;;
35743;SDS011;21867;52.012;4.324;2022-12-18T02:12:42;46.03;;;26.03;;
35743;SDS011;21867;52.012;4.324;2022-12-18T02:15:13;39.93;;;24.20;;
35743;SDS011;21867;52.012;4.324;2022-12-18T02:18:24;44.33;;;25.67;;
35743;SDS011;21867;52.012;4.324;2022-12-18T02:20:55;42.20;;;25.90;;
35743;SDS011;21867;52.012;4.324;2022-12-18T02:23:31;40.20;;;23.10;;
35743;SDS011;21867;52.012;4.324;2022-12-18T02:31:52;36.90;;;21.43;;
35743;SDS011;21867;52.012;4.324;2022-12-18T02:34:22;41.17;;;24.43;;
35743;SDS011;21867;52.012;4.324;2022-12-18T02:36:50;45.07;;;26.80;;
35743;SDS011;21867;52.012;4.324;2022-12-18T02:39:19;47.07;;;26.77;;
35743;SDS011;21867;52.012;4.324;2022-12-18T02:41:57;49.00;;;25.17;;
35743;SDS011;21867;52.012;4.324;2022-12-18T02:44:24;44.83;;;25.00;;
35743;SDS011;21867;52.012;4.324;2022-12-18T02:46:54;46.20;;;24.73;;
35743;SDS011;21867;52.012;4.324;2022-12-18T02:49:26;43.67;;;25.10;;
35743;SDS011;21867;52.012;4.324;2022-12-18T02:52:01;48.60;;;26.50;;
35743;SDS011;21867;52.012;4.324;2022-12-18T02:54:36;39.63;;;23.53;;
35743;SDS011;21867;52.012;4.324;2022-12-18T02:57:23;40.93;;;24.23;;
35743;SDS011;21867;52.012;4.324;2022-12-18T03:00:06;40.20;;;24.57;;
35743;SDS011;21867;52.012;4.324;2022-12-18T03:02:38;39.17;;;23.63;;
35743;SDS011;21867;52.012;4.324;2022-12-18T03:05:08;42.27;;;24.10;;
35743;SDS011;21867;52.012;4.324;2022-12-18T03:07:38;47.47;;;26.00;;
35743;SDS011;21867;52.012;4.324;2022-12-18T03:10:11;43.40;;;24.87;;
35743;SDS011;21867;52.012;4.324;2022-12-18T03:12:41;41.10;;;24.53;;
35743;SDS011;21867;52.012;4.324;2022-12-18T03:15:16;43.73;;;26.57;;
35743;SDS011;21867;52.012;4.324;2022-12-18T03:17:54;41.60;;;24.30;;
35743;SDS011;21867;52.012;4.324;2022-12-18T03:20:25;39.37;;;24.53;;
35743;SDS011;21867;52.012;4.324;2022-12-18T03:22:56;39.13;;;23.77;;
35743;SDS011;21867;52.012;4.324;2022-12-18T03:31:48;39.23;;;24.23;;
35743;SDS011;21867;52.012;4.324;2022-12-18T03:34:20;31.20;;;20.67;;
35743;SDS011;21867;52.012;4.324;2022-12-18T03:36:49;41.20;;;25.60;;
35743;SDS011;21867;52.012;4.324;2022-12-18T03:39:17;38.73;;;23.67;;
35743;SDS011;21867;52.012;4.324;2022-12-18T03:41:52;37.23;;;24.00;;
35743;SDS011;21867;52.012;4.324;2022-12-18T03:47:10;36.33;;;22.47;;
35743;SDS011;21867;52.012;4.324;2022-12-18T03:49:44;38.03;;;23.73;;
35743;SDS011;21867;52.012;4.324;2022-12-18T03:52:15;38.40;;;24.10;;
35743;SDS011;21867;52.012;4.324;2022-12-18T03:55:03;36.93;;;22.07;;
35743;SDS011;21867;52.012;4.324;2022-12-18T04:00:45;37.13;;;21.30;;
35743;SDS011;21867;52.012;4.324;2022-12-18T04:03:12;34.30;;;22.07;;
35743;SDS011;21867;52.012;4.324;2022-12-18T04:05:46;39.10;;;25.87;;
35743;SDS011;21867;52.012;4.324;2022-12-18T04:08:16;33.10;;;21.70;;
35743;SDS011;21867;52.012;4.324;2022-12-18T04:10:51;36.77;;;22.53;;
35743;SDS011;21867;52.012;4.324;2022-12-18T04:13:22;33.07;;;21.37;;
35743;SDS011;21867;52.012;4.324;2022-12-18T04:16:18;33.73;;;21.00;;
35743;SDS011;21867;52.012;4.324;2022-12-18T04:18:49;35.10;;;22.80;;
35743;SDS011;21867;52.012;4.324;2022-12-18T04:21:20;27.47;;;17.23;;
35743;SDS011;21867;52.012;4.324;2022-12-18T04:23:48;32.23;;;21.00;;
35743;SDS011;21867;52.012;4.324;2022-12-18T04:26:18;37.40;;;22.23;;
35743;SDS011;21867;52.012;4.324;2022-12-18T04:29:03;39.93;;;21.33;;
35743;SDS011;21867;52.012;4.324;2022-12-18T04:31:32;34.33;;;19.73;;
35743;SDS011;21867;52.012;4.324;2022-12-18T04:34:02;34.83;;;22.40;;
35743;SDS011;21867;52.012;4.324;2022-12-18T04:36:38;34.17;;;20.97;;
35743;SDS011;21867;52.012;4.324;2022-12-18T04:39:06;33.80;;;21.27;;
35743;SDS011;21867;52.012;4.324;2022-12-18T04:41:33;35.67;;;22.50;;
35743;SDS011;21867;52.012;4.324;2022-12-18T04:44:14;34.20;;;21.63;;
35743;SDS011;21867;52.012;4.324;2022-12-18T04:46:41;33.50;;;20.73;;
35743;SDS011;21867;52.012;4.324;2022-12-18T04:49:09;33.43;;;20.70;;
35743;SDS011;21867;52.012;4.324;2022-12-18T04:51:38;35.60;;;21.97;;
35743;SDS011;21867;52.012;4.324;2022-12-18T04:54:05;33.57;;;20.40;;
35743;SDS011;21867;52.012;4.324;2022-12-18T04:56:33;30.77;;;19.37;;
35743;SDS011;21867;52.012;4.324;2022-12-18T04:59:12;33.53;;;20.67;;
35743;SDS011;21867;52.012;4.324;2022-12-18T05:01:39;29.10;;;18.33;;
35743;SDS011;21867;52.012;4.324;2022-12-18T05:04:07;31.20;;;21.03;;
35743;SDS011;21867;52.012;4.324;2022-12-18T05:06:34;30.80;;;19.67;;
35743;SDS011;21867;52.012;4.324;2022-12-18T05:09:09;32.03;;;21.00;;
35743;SDS011;21867;52.012;4.324;2022-12-18T05:14:25;34.67;;;20.23;;
35743;SDS011;21867;52.012;4.324;2022-12-18T05:16:52;31.17;;;19.93;;
35743;SDS011;21867;52.012;4.324;2022-12-18T05:19:26;32.53;;;20.57;;
35743;SDS011;21867;52.012;4.324;2022-12-18T05:21:53;33.10;;;20.93;;
35743;SDS011;21867;52.012;4.324;2022-12-18T05:24:21;33.07;;;21.43;;
35743;SDS011;21867;52.012;4.324;2022-12-18T05:26:49;33.17;;;20.73;;
35743;SDS011;21867;52.012;4.324;2022-12-18T05:29:19;30.50;;;20.97;;
35743;SDS011;21867;52.012;4.324;2022-12-18T05:31:46;34.13;;;21.30;;
35743;SDS011;21867;52.012;4.324;2022-12-18T05:34:14;31.30;;;19.27;;
35743;SDS011;21867;52.012;4.324;2022-12-18T05:36:41;33.07;;;21.90;;
35743;SDS011;21867;52.012;4.324;2022-12-18T05:42:58;30.67;;;18.87;;
35743;SDS011;21867;52.012;4.324;2022-12-18T05:45:25;35.60;;;21.30;;
35743;SDS011;21867;52.012;4.324;2022-12-18T05:47:52;33.83;;;20.93;;
35743;SDS011;21867;52.012;4.324;2022-12-18T05:50:20;23.20;;;15.10;;
35743;SDS011;21867;52.012;4.324;2022-12-18T05:52:47;32.63;;;20.70;;
35743;SDS011;21867;52.012;4.324;2022-12-18T05:55:15;31.47;;;20.90;;
35743;SDS011;21867;52.012;4.324;2022-12-18T05:58:00;30.93;;;20.40;;
35743;SDS011;21867;52.012;4.324;2022-12-18T06:00:27;31.17;;;20.10;;
35743;SDS011;21867;52.012;4.324;2022-12-18T06:02:55;30.40;;;18.87;;
35743;SDS011;21867;52.012;4.324;2022-12-18T06:05:22;31.33;;;19.20;;
35743;SDS011;21867;52.012;4.324;2022-12-18T06:08:08;32.47;;;20.03;;
35743;SDS011;21867;52.012;4.324;2022-12-18T06:13:33;30.40;;;19.57;;
35743;SDS011;21867;52.012;4.324;2022-12-18T06:16:01;26.57;;;17.97;;
35743;SDS011;21867;52.012;4.324;2022-12-18T06:18:28;31.30;;;19.63;;
35743;SDS011;21867;52.012;4.324;2022-12-18T06:20:56;28.13;;;18.53;;
35743;SDS011;21867;52.012;4.324;2022-12-18T06:23:23;30.57;;;18.87;;
35743;SDS011;21867;52.012;4.324;2022-12-18T06:25:51;28.33;;;18.63;;
35743;SDS011;21867;52.012;4.324;2022-12-18T06:28:18;21.87;;;14.77;;
35743;SDS011;21867;52.012;4.324;2022-12-18T06:30:47;30.90;;;20.10;;
35743;SDS011;21867;52.012;4.324;2022-12-18T06:33:15;29.13;;;18.63;;
35743;SDS011;21867;52.012;4.324;2022-12-18T06:35:42;25.23;;;17.80;;
35743;SDS011;21867;52.012;4.324;2022-12-18T06:38:12;28.43;;;19.13;;
35743;SDS011;21867;52.012;4.324;2022-12-18T06:40:40;23.40;;;16.83;;
35743;SDS011;21867;52.012;4.324;2022-12-18T06:43:08;27.47;;;19.40;;
35743;SDS011;21867;52.012;4.324;2022-12-18T06:45:36;24.43;;;16.67;;
35743;SDS011;21867;52.012;4.324;2022-12-18T06:48:05;25.57;;;17.50;;
35743;SDS011;21867;52.012;4.324;2022-12-18T06:50:32;24.97;;;16.90;;
35743;SDS011;21867;52.012;4.324;2022-12-18T06:53:00;24.93;;;17.57;;
35743;SDS011;21867;52.012;4.324;2022-12-18T06:55:27;25.70;;;17.57;;
35743;SDS011;21867;52.012;4.324;2022-12-18T06:58:01;24.53;;;17.87;;
35743;SDS011;21867;52.012;4.324;2022-12-18T07:00:28;21.33;;;15.90;;
35743;SDS011;21867;52.012;4.324;2022-12-18T07:02:56;26.53;;;16.77;;
35743;SDS011;21867;52.012;4.324;2022-12-18T07:05:24;22.13;;;16.60;;
35743;SDS011;21867;52.012;4.324;2022-12-18T07:07:52;19.00;;;14.27;;
35743;SDS011;21867;52.012;4.324;2022-12-18T07:10:19;25.63;;;17.33;;
35743;SDS011;21867;52.012;4.324;2022-12-18T07:12:46;22.20;;;15.17;;
35743;SDS011;21867;52.012;4.324;2022-12-18T07:15:13;21.13;;;15.33;;
35743;SDS011;21867;52.012;4.324;2022-12-18T07:17:41;25.43;;;17.37;;
35743;SDS011;21867;52.012;4.324;2022-12-18T07:20:09;21.47;;;16.00;;
35743;SDS011;21867;52.012;4.324;2022-12-18T07:22:37;17.87;;;12.77;;
35743;SDS011;21867;52.012;4.324;2022-12-18T07:25:05;15.60;;;12.73;;
35743;SDS011;21867;52.012;4.324;2022-12-18T07:27:33;26.23;;;17.70;;
35743;SDS011;21867;52.012;4.324;2022-12-18T07:30:00;21.30;;;15.47;;
35743;SDS011;21867;52.012;4.324;2022-12-18T07:32:27;21.27;;;15.03;;
35743;SDS011;21867;52.012;4.324;2022-12-18T07:34:54;23.47;;;15.63;;
35743;SDS011;21867;52.012;4.324;2022-12-18T07:37:22;20.73;;;15.17;;
35743;SDS011;21867;52.012;4.324;2022-12-18T07:39:50;21.07;;;15.87;;
35743;SDS011;21867;52.012;4.324;2022-12-18T07:42:17;23.03;;;15.37;;
35743;SDS011;21867;52.012;4.324;2022-12-18T07:44:47;20.87;;;15.07;;
35743;SDS011;21867;52.012;4.324;2022-12-18T07:47:14;21.37;;;15.33;;
35743;SDS011;21867;52.012;4.324;2022-12-18T07:49:41;19.57;;;13.97;;
35743;SDS011;21867;52.012;4.324;2022-12-18T07:52:09;17.83;;;12.67;;
35743;SDS011;21867;52.012;4.324;2022-12-18T07:54:36;24.40;;;15.23;;
35743;SDS011;21867;52.012;4.324;2022-12-18T07:57:04;21.13;;;15.77;;
35743;SDS011;21867;52.012;4.324;2022-12-18T07:59:52;22.03;;;15.77;;
35743;SDS011;21867;52.012;4.324;2022-12-18T08:02:19;21.57;;;16.30;;
35743;SDS011;21867;52.012;4.324;2022-12-18T08:04:47;14.93;;;11.20;;
35743;SDS011;21867;52.012;4.324;2022-12-18T08:07:14;18.67;;;12.73;;
35743;SDS011;21867;52.012;4.324;2022-12-18T08:09:41;18.67;;;12.90;;
35743;SDS011;21867;52.012;4.324;2022-12-18T08:12:10;19.73;;;13.63;;
35743;SDS011;21867;52.012;4.324;2022-12-18T08:14:37;21.37;;;15.10;;
35743;SDS011;21867;52.012;4.324;2022-12-18T08:17:04;20.63;;;12.40;;
35743;SDS011;21867;52.012;4.324;2022-12-18T08:19:32;18.63;;;13.83;;
35743;SDS011;21867;52.012;4.324;2022-12-18T08:21:59;16.07;;;12.97;;
35743;SDS011;21867;52.012;4.324;2022-12-18T08:24:26;16.60;;;13.37;;
35743;SDS011;21867;52.012;4.324;2022-12-18T08:26:53;12.07;;;9.20;;
35743;SDS011;21867;52.012;4.324;2022-12-18T08:29:42;17.07;;;12.87;;
35743;SDS011;21867;52.012;4.324;2022-12-18T08:32:10;16.73;;;13.30;;
35743;SDS011;21867;52.012;4.324;2022-12-18T08:34:38;17.70;;;12.47;;
35743;SDS011;21867;52.012;4.324;2022-12-18T08:37:05;15.87;;;12.43;;
35743;SDS011;21867;52.012;4.324;2022-12-18T08:42:33;17.27;;;12.20;;
35743;SDS011;21867;52.012;4.324;2022-12-18T08:45:02;15.90;;;11.93;;
35743;SDS011;21867;52.012;4.324;2022-12-18T08:47:30;18.77;;;13.50;;
35743;SDS011;21867;52.012;4.324;2022-12-18T08:49:57;19.37;;;13.20;;
35743;SDS011;21867;52.012;4.324;2022-12-18T08:52:24;16.73;;;13.97;;
35743;SDS011;21867;52.012;4.324;2022-12-18T08:54:52;18.20;;;13.67;;
35743;SDS011;21867;52.012;4.324;2022-12-18T09:00:11;19.17;;;13.80;;
35743;SDS011;21867;52.012;4.324;2022-12-18T09:02:38;16.07;;;12.63;;
35743;SDS011;21867;52.012;4.324;2022-12-18T09:05:06;17.13;;;12.63;;
35743;SDS011;21867;52.012;4.324;2022-12-18T09:07:33;17.27;;;12.77;;
35743;SDS011;21867;52.012;4.324;2022-12-18T09:10:00;15.90;;;11.93;;
35743;SDS011;21867;52.012;4.324;2022-12-18T09:12:46;22.83;;;15.57;;
35743;SDS011;21867;52.012;4.324;2022-12-18T09:19:07;14.00;;;11.67;;
35743;SDS011;21867;52.012;4.324;2022-12-18T09:21:34;17.83;;;12.63;;
35743;SDS011;21867;52.012;4.324;2022-12-18T09:24:03;16.13;;;11.93;;
35743;SDS011;21867;52.012;4.324;2022-12-18T09:26:34;15.60;;;12.87;;
35743;SDS011;21867;52.012;4.324;2022-12-18T09:29:07;17.27;;;12.73;;
35743;SDS011;21867;52.012;4.324;2022-12-18T09:31:34;16.97;;;12.30;;
35743;SDS011;21867;52.012;4.324;2022-12-18T09:34:02;13.57;;;11.93;;
35743;SDS011;21867;52.012;4.324;2022-12-18T09:36:31;16.80;;;11.70;;
35743;SDS011;21867;52.012;4.324;2022-12-18T09:38:58;17.07;;;12.53;;
35743;SDS011;21867;52.012;4.324;2022-12-18T09:41:34;16.57;;;11.57;;
35743;SDS011;21867;52.012;4.324;2022-12-18T09:44:03;16.77;;;12.17;;
35743;SDS011;21867;52.012;4.324;2022-12-18T09:46:33;16.77;;;12.27;;
35743;SDS011;21867;52.012;4.324;2022-12-18T09:49:02;15.17;;;11.47;;
35743;SDS011;21867;52.012;4.324;2022-12-18T09:51:32;18.73;;;12.10;;
35743;SDS011;21867;52.012;4.324;2022-12-18T09:54:14;18.30;;;13.57;;
35743;SDS011;21867;52.012;4.324;2022-12-18T09:56:55;15.17;;;11.47;;
35743;SDS011;21867;52.012;4.324;2022-12-18T09:59:24;14.03;;;12.07;;
35743;SDS011;21867;52.012;4.324;2022-12-18T10:01:52;17.13;;;12.97;;
35743;SDS011;21867;52.012;4.324;2022-12-18T10:04:19;13.30;;;10.13;;
35743;SDS011;21867;52.012;4.324;2022-12-18T10:06:51;16.47;;;12.53;;
35743;SDS011;21867;52.012;4.324;2022-12-18T10:09:22;18.07;;;12.83;;
35743;SDS011;21867;52.012;4.324;2022-12-18T10:12:03;7.10;;;6.20;;
35743;SDS011;21867;52.012;4.324;2022-12-18T10:14:34;14.23;;;12.73;;
35743;SDS011;21867;52.012;4.324;2022-12-18T10:17:07;17.40;;;13.13;;
35743;SDS011;21867;52.012;4.324;2022-12-18T10:19:42;17.07;;;12.70;;
35743;SDS011;21867;52.012;4.324;2022-12-18T10:22:24;13.50;;;11.50;;
35743;SDS011;21867;52.012;4.324;2022-12-18T10:26:01;17.23;;;12.60;;
35743;SDS011;21867;52.012;4.324;2022-12-18T10:28:39;15.43;;;13.17;;
35743;SDS011;21867;52.012;4.324;2022-12-18T10:31:10;11.83;;;9.73;;
35743;SDS011;21867;52.012;4.324;2022-12-18T10:33:41;17.80;;;13.47;;
35743;SDS011;21867;52.012;4.324;2022-12-18T10:36:08;15.70;;;11.90;;
35743;SDS011;21867;52.012;4.324;2022-12-18T10:38:37;16.10;;;13.03;;
35743;SDS011;21867;52.012;4.324;2022-12-18T10:41:05;16.10;;;11.83;;
35743;SDS011;21867;52.012;4.324;2022-12-18T10:43:33;14.43;;;12.93;;
35743;SDS011;21867;52.012;4.324;2022-12-18T10:48:53;15.10;;;12.17;;
35743;SDS011;21867;52.012;4.324;2022-12-18T10:51:22;16.90;;;12.50;;
35743;SDS011;21867;52.012;4.324;2022-12-18T10:53:56;12.80;;;10.70;;
35743;SDS011;21867;52.012;4.324;2022-12-18T10:56:23;14.60;;;10.83;;
35743;SDS011;21867;52.012;4.324;2022-12-18T10:58:55;12.63;;;10.87;;
35743;SDS011;21867;52.012;4.324;2022-12-18T11:01:23;14.77;;;11.40;;
35743;SDS011;21867;52.012;4.324;2022-12-18T11:03:59;14.30;;;10.23;;
35743;SDS011;21867;52.012;4.324;2022-12-18T11:06:28;13.83;;;11.43;;
35743;SDS011;21867;52.012;4.324;2022-12-18T11:09:00;12.03;;;9.10;;
35743;SDS011;21867;52.012;4.324;2022-12-18T11:11:37;14.80;;;12.43;;
35743;SDS011;21867;52.012;4.324;2022-12-18T11:14:05;15.30;;;10.90;;
35743;SDS011;21867;52.012;4.324;2022-12-18T11:16:33;16.47;;;12.10;;
35743;SDS011;21867;52.012;4.324;2022-12-18T11:19:13;13.43;;;10.53;;
35743;SDS011;21867;52.012;4.324;2022-12-18T11:21:42;13.43;;;11.63;;
35743;SDS011;21867;52.012;4.324;2022-12-18T11:24:17;14.00;;;10.07;;
35743;SDS011;21867;52.012;4.324;2022-12-18T11:26:47;14.83;;;11.90;;
35743;SDS011;21867;52.012;4.324;2022-12-18T11:29:18;15.40;;;12.33;;
35743;SDS011;21867;52.012;4.324;2022-12-18T11:31:49;12.23;;;9.87;;
35743;SDS011;21867;52.012;4.324;2022-12-18T11:34:19;12.97;;;11.50;;
35743;SDS011;21867;52.012;4.324;2022-12-18T11:36:55;14.20;;;10.40;;
35743;SDS011;21867;52.012;4.324;2022-12-18T11:39:35;12.20;;;10.63;;
35743;SDS011;21867;52.012;4.324;2022-12-18T11:42:04;13.40;;;11.67;;
35743;SDS011;21867;52.012;4.324;2022-12-18T11:44:36;14.20;;;12.03;;
35743;SDS011;21867;52.012;4.324;2022-12-18T11:47:07;15.53;;;11.93;;
35743;SDS011;21867;52.012;4.324;2022-12-18T11:49:36;11.33;;;9.00;;
35743;SDS011;21867;52.012;4.324;2022-12-18T11:52:04;15.30;;;12.03;;
35743;SDS011;21867;52.012;4.324;2022-12-18T11:54:38;14.77;;;11.20;;
35743;SDS011;21867;52.012;4.324;2022-12-18T11:57:07;13.63;;;11.93;;
35743;SDS011;21867;52.012;4.324;2022-12-18T11:59:39;13.30;;;10.87;;
35743;SDS011;21867;52.012;4.324;2022-12-18T12:02:13;14.03;;;10.57;;
35743;SDS011;21867;52.012;4.324;2022-12-18T12:04:48;16.00;;;12.27;;
35743;SDS011;21867;52.012;4.324;2022-12-18T12:07:20;16.40;;;11.73;;
35743;SDS011;21867;52.012;4.324;2022-12-18T12:09:53;16.30;;;12.60;;
35743;SDS011;21867;52.012;4.324;2022-12-18T12:12:28;12.93;;;11.33;;
35743;SDS011;21867;52.012;4.324;2022-12-18T12:15:01;14.07;;;11.57;;
35743;SDS011;21867;52.012;4.324;2022-12-18T12:17:32;13.23;;;10.37;;
35743;SDS011;21867;52.012;4.324;2022-12-18T12:20:03;11.47;;;9.73;;
35743;SDS011;21867;52.012;4.324;2022-12-18T12:22:35;12.50;;;10.33;;
35743;SDS011;21867;52.012;4.324;2022-12-18T12:25:10;13.03;;;11.10;;
35743;SDS011;21867;52.012;4.324;2022-12-18T12:27:43;15.87;;;13.17;;
35743;SDS011;21867;52.012;4.324;2022-12-18T12:30:16;13.60;;;11.43;;
35743;SDS011;21867;52.012;4.324;2022-12-18T12:32:51;14.67;;;11.40;;
35743;SDS011;21867;52.012;4.324;2022-12-18T12:35:22;12.53;;;9.83;;
35743;SDS011;21867;52.012;4.324;2022-12-18T12:37:54;16.43;;;11.50;;
35743;SDS011;21867;52.012;4.324;2022-12-18T12:40:26;15.30;;;12.30;;
35743;SDS011;21867;52.012;4.324;2022-12-18T12:43:22;15.83;;;11.73;;
35743;SDS011;21867;52.012;4.324;2022-12-18T12:45:51;15.27;;;12.20;;
35743;SDS011;21867;52.012;4.324;2022-12-18T12:48:24;15.00;;;11.90;;
35743;SDS011;21867;52.012;4.324;2022-12-18T12:50:54;16.13;;;12.07;;
35743;SDS011;21867;52.012;4.324;2022-12-18T12:53:24;13.83;;;12.07;;
35743;SDS011;21867;52.012;4.324;2022-12-18T12:55:54;22.00;;;12.03;;
35743;SDS011;21867;52.012;4.324;2022-12-18T12:58:25;15.10;;;12.50;;
35743;SDS011;21867;52.012;4.324;2022-12-18T13:00:54;14.93;;;11.87;;
35743;SDS011;21867;52.012;4.324;2022-12-18T13:03:26;8.20;;;7.20;;
35743;SDS011;21867;52.012;4.324;2022-12-18T13:06:08;13.67;;;10.87;;
35743;SDS011;21867;52.012;4.324;2022-12-18T13:08:51;14.13;;;11.67;;
35743;SDS011;21867;52.012;4.324;2022-12-18T13:11:40;15.50;;;11.33;;
35743;SDS011;21867;52.012;4.324;2022-12-18T13:14:12;15.73;;;12.30;;
35743;SDS011;21867;52.012;4.324;2022-12-18T13:16:47;14.47;;;11.97;;
35743;SDS011;21867;52.012;4.324;2022-12-18T13:19:20;12.93;;;10.83;;
35743;SDS011;21867;52.012;4.324;2022-12-18T13:21:52;12.53;;;10.73;;
35743;SDS011;21867;52.012;4.324;2022-12-18T13:24:22;12.77;;;10.33;;
35743;SDS011;21867;52.012;4.324;2022-12-18T13:26:58;12.93;;;10.87;;
35743;SDS011;21867;52.012;4.324;2022-12-18T13:29:41;13.30;;;10.73;;
35743;SDS011;21867;52.012;4.324;2022-12-18T13:43:41;12.40;;;9.53;;
35743;SDS011;21867;52.012;4.324;2022-12-18T13:46:21;11.57;;;9.33;;
35743;SDS011;21867;52.012;4.324;2022-12-18T13:48:51;14.07;;;10.53;;
35743;SDS011;21867;52.012;4.324;2022-12-18T13:51:35;13.07;;;11.43;;
35743;SDS011;21867;52.012;4.324;2022-12-18T13:54:12;6.93;;;6.17;;
35743;SDS011;21867;52.012;4.324;2022-12-18T13:56:42;12.33;;;10.80;;
35743;SDS011;21867;52.012;4.324;2022-12-18T13:59:13;14.83;;;11.77;;
35743;SDS011;21867;52.012;4.324;2022-12-18T14:01:42;11.87;;;9.73;;
35743;SDS011;21867;52.012;4.324;2022-12-18T14:04:11;13.90;;;11.33;;
35743;SDS011;21867;52.012;4.324;2022-12-18T14:06:38;11.77;;;10.03;;
35743;SDS011;21867;52.012;4.324;2022-12-18T14:09:06;13.00;;;9.47;;
35743;SDS011;21867;52.012;4.324;2022-12-18T14:11:37;11.53;;;8.53;;
35743;SDS011;21867;52.012;4.324;2022-12-18T14:14:06;13.70;;;10.50;;
35743;SDS011;21867;52.012;4.324;2022-12-18T14:16:35;12.90;;;11.10;;
35743;SDS011;21867;52.012;4.324;2022-12-18T14:19:04;14.87;;;10.50;;
35743;SDS011;21867;52.012;4.324;2022-12-18T14:21:38;10.00;;;8.13;;
35743;SDS011;21867;52.012;4.324;2022-12-18T14:24:06;11.03;;;9.30;;
35743;SDS011;21867;52.012;4.324;2022-12-18T14:26:39;15.43;;;11.00;;
35743;SDS011;21867;52.012;4.324;2022-12-18T14:29:20;13.43;;;9.23;;
35743;SDS011;21867;52.012;4.324;2022-12-18T14:32:06;14.73;;;11.47;;
35743;SDS011;21867;52.012;4.324;2022-12-18T14:34:42;12.17;;;9.40;;
35743;SDS011;21867;52.012;4.324;2022-12-18T14:37:10;13.23;;;10.67;;
35743;SDS011;21867;52.012;4.324;2022-12-18T14:39:37;16.03;;;13.07;;
35743;SDS011;21867;52.012;4.324;2022-12-18T14:42:05;13.80;;;11.23;;
35743;SDS011;21867;52.012;4.324;2022-12-18T14:44:32;17.03;;;12.37;;
35743;SDS011;21867;52.012;4.324;2022-12-18T14:47:17;14.00;;;12.50;;
35743;SDS011;21867;52.012;4.324;2022-12-18T14:49:45;17.97;;;13.47;;
35743;SDS011;21867;52.012;4.324;2022-12-18T14:52:17;30.73;;;20.13;;
35743;SDS011;21867;52.012;4.324;2022-12-18T14:54:47;22.87;;;18.33;;
35743;SDS011;21867;52.012;4.324;2022-12-18T14:57:21;20.57;;;13.27;;
35743;SDS011;21867;52.012;4.324;2022-12-18T14:59:49;14.00;;;10.70;;
35743;SDS011;21867;52.012;4.324;2022-12-18T15:02:19;13.30;;;10.30;;
35743;SDS011;21867;52.012;4.324;2022-12-18T15:04:59;15.97;;;12.60;;
35743;SDS011;21867;52.012;4.324;2022-12-18T15:07:26;18.33;;;13.47;;
35743;SDS011;21867;52.012;4.324;2022-12-18T15:10:01;12.20;;;10.20;;
35743;SDS011;21867;52.012;4.324;2022-12-18T15:12:32;17.00;;;11.97;;
35743;SDS011;21867;52.012;4.324;2022-12-18T15:15:01;15.20;;;11.60;;
35743;SDS011;21867;52.012;4.324;2022-12-18T15:17:32;16.77;;;12.50;;
35743;SDS011;21867;52.012;4.324;2022-12-18T15:20:00;18.73;;;12.93;;
35743;SDS011;21867;52.012;4.324;2022-12-18T15:22:29;12.00;;;9.33;;
35743;SDS011;21867;52.012;4.324;2022-12-18T15:24:57;15.93;;;11.87;;
35743;SDS011;21867;52.012;4.324;2022-12-18T15:27:26;15.60;;;11.03;;
35743;SDS011;21867;52.012;4.324;2022-12-18T15:30:00;13.20;;;11.13;;
35743;SDS011;21867;52.012;4.324;2022-12-18T15:32:28;16.10;;;12.20;;
35743;SDS011;21867;52.012;4.324;2022-12-18T15:35:07;12.13;;;9.67;;
35743;SDS011;21867;52.012;4.324;2022-12-18T15:37:38;9.30;;;8.27;;
35743;SDS011;21867;52.012;4.324;2022-12-18T15:40:07;17.43;;;11.67;;
35743;SDS011;21867;52.012;4.324;2022-12-18T15:42:35;12.00;;;9.03;;
35743;SDS011;21867;52.012;4.324;2022-12-18T15:45:02;10.37;;;8.57;;
35743;SDS011;21867;52.012;4.324;2022-12-18T15:47:30;20.50;;;14.40;;
35743;SDS011;21867;52.012;4.324;2022-12-18T15:49:57;14.13;;;12.60;;
35743;SDS011;21867;52.012;4.324;2022-12-18T15:52:26;13.67;;;11.03;;